createdAt,value
2023-02-19T00:02:01.683Z,9.10
2023-02-19T00:04:49.038Z,10.80
2023-02-19T00:07:36.451Z,11.37
2023-02-19T00:10:23.823Z,16.50
2023-02-19T00:13:11.212Z,11.57
2023-02-19T00:15:58.669Z,8.87
2023-02-19T00:18:46.108Z,10.50
2023-02-19T00:21:33.543Z,9.10
2023-02-19T00:24:21.203Z,13.77
2023-02-19T00:27:08.537Z,13.17
2023-02-19T00:29:55.897Z,13.30
2023-02-19T00:32:43.253Z,12.37
2023-02-19T00:35:30.600Z,10.80
2023-02-19T00:38:17.970Z,15.50
2023-02-19T00:41:20.991Z,11.13
2023-02-19T00:44:08.981Z,10.70
2023-02-19T00:46:56.319Z,13.40
2023-02-19T00:49:43.652Z,12.60
2023-02-19T00:52:30.995Z,16.03
2023-02-19T00:55:18.427Z,15.80
2023-02-19T00:58:05.781Z,13.37
2023-02-19T01:00:53.169Z,13.33
2023-02-19T01:03:40.834Z,16.77
2023-02-19T01:06:29.960Z,18.73
2023-02-19T01:09:17.427Z,15.93
2023-02-19T01:12:05.926Z,20.00
2023-02-19T01:14:53.266Z,18.67
2023-02-19T01:17:41.950Z,15.83
2023-02-19T01:20:29.292Z,14.37
2023-02-19T01:23:16.634Z,16.17
2023-02-19T01:26:05.136Z,16.20
2023-02-19T01:28:52.575Z,17.03
2023-02-19T01:31:42.064Z,15.83
2023-02-19T01:34:33.164Z,12.13
2023-02-19T01:37:20.525Z,13.90
2023-02-19T01:40:08.041Z,10.40
2023-02-19T01:42:55.396Z,10.40
2023-02-19T01:45:46.138Z,12.50
2023-02-19T01:48:36.807Z,9.63
2023-02-19T01:51:24.299Z,11.07
2023-02-19T01:54:13.326Z,12.07
2023-02-19T01:57:02.665Z,7.70
2023-02-19T01:59:54.812Z,6.77
2023-02-19T02:02:43.681Z,6.40
2023-02-19T02:05:38.439Z,5.90
2023-02-19T02:08:45.501Z,6.93
2023-02-19T02:11:32.993Z,5.97
2023-02-19T02:14:23.333Z,4.13
2023-02-19T02:17:16.806Z,7.47
2023-02-19T02:20:16.546Z,7.77
2023-02-19T02:23:19.018Z,5.47
2023-02-19T02:26:06.361Z,4.77
2023-02-19T02:28:53.713Z,4.40
2023-02-19T02:31:49.805Z,7.53
2023-02-19T02:34:46.682Z,6.67
2023-02-19T02:37:36.114Z,6.87
2023-02-19T02:40:23.551Z,5.07
2023-02-19T02:43:11.705Z,8.40
2023-02-19T02:45:59.198Z,8.77
2023-02-19T02:48:53.706Z,4.90
2023-02-19T02:51:44.156Z,4.07
2023-02-19T02:54:52.489Z,2.73
2023-02-19T02:57:39.889Z,5.27
2023-02-19T03:00:48.463Z,5.20
2023-02-19T03:03:39.169Z,4.93
2023-02-19T03:06:29.786Z,3.30
2023-02-19T03:09:20.582Z,3.07
2023-02-19T03:12:30.627Z,4.37
2023-02-19T03:15:37.529Z,4.17
2023-02-19T03:18:46.169Z,4.53
2023-02-19T03:21:34.753Z,7.90
2023-02-19T03:24:43.475Z,6.47
2023-02-19T03:27:32.768Z,7.23
2023-02-19T03:30:24.934Z,3.83
2023-02-19T03:33:14.673Z,3.57
2023-02-19T03:36:03.408Z,4.10
2023-02-19T03:38:57.958Z,4.47
2023-02-19T03:41:45.284Z,4.57
2023-02-19T03:44:48.480Z,3.90
2023-02-19T03:47:41.850Z,7.47
2023-02-19T03:50:31.173Z,5.47
2023-02-19T03:53:24.887Z,3.17
2023-02-19T03:56:19.284Z,5.50
2023-02-19T03:59:14.627Z,6.00
2023-02-19T04:02:06.201Z,3.77
2023-02-19T04:04:59.475Z,5.00
2023-02-19T04:07:49.539Z,5.57
2023-02-19T04:10:38.750Z,3.30
2023-02-19T04:13:34.307Z,5.20
2023-02-19T04:16:23.595Z,5.73
2023-02-19T04:19:12.506Z,6.87
2023-02-19T04:22:00.461Z,5.27
2023-02-19T04:24:51.663Z,5.13
2023-02-19T04:27:39.170Z,2.50
2023-02-19T04:30:26.588Z,3.17
2023-02-19T04:33:14.074Z,5.50
2023-02-19T04:36:01.806Z,5.70
2023-02-19T04:38:49.167Z,5.47
2023-02-19T04:41:36.538Z,3.77
2023-02-19T04:44:23.951Z,3.60
2023-02-19T04:47:12.387Z,2.97
2023-02-19T04:49:59.710Z,5.27
2023-02-19T04:52:47.087Z,4.27
2023-02-19T04:55:37.807Z,4.33
2023-02-19T04:58:25.139Z,5.87
2023-02-19T05:01:13.166Z,5.33
2023-02-19T05:04:00.807Z,2.03
2023-02-19T05:06:48.225Z,5.57
2023-02-19T05:09:35.582Z,6.80
2023-02-19T05:12:23.055Z,4.43
2023-02-19T05:15:10.422Z,5.03
2023-02-19T05:17:57.783Z,2.53
2023-02-19T05:20:45.123Z,5.63
2023-02-19T05:23:32.677Z,5.63
2023-02-19T05:26:21.672Z,3.07
2023-02-19T05:29:09.055Z,6.03
2023-02-19T05:31:56.469Z,3.40
2023-02-19T05:34:43.993Z,2.10
2023-02-19T05:37:31.324Z,3.07
2023-02-19T05:40:18.671Z,3.77
2023-02-19T05:43:06.338Z,4.17
2023-02-19T05:45:58.567Z,4.17
2023-02-19T05:48:46.458Z,6.60
2023-02-19T05:51:33.867Z,8.73
2023-02-19T05:54:21.198Z,3.73
2023-02-19T05:57:08.533Z,4.07
2023-02-19T05:59:56.994Z,5.50
2023-02-19T06:02:44.965Z,4.43
2023-02-19T06:05:32.317Z,4.93
2023-02-19T06:08:19.666Z,3.87
2023-02-19T06:11:07.087Z,7.50
2023-02-19T06:13:54.437Z,5.57
2023-02-19T06:16:42.074Z,4.87
2023-02-19T06:19:29.445Z,6.53
2023-02-19T06:22:17.303Z,4.70
2023-02-19T06:25:05.748Z,5.60
2023-02-19T06:27:53.078Z,4.67
2023-02-19T06:30:40.430Z,7.87
2023-02-19T06:33:28.169Z,6.50
2023-02-19T06:36:16.929Z,6.37
2023-02-19T06:39:05.324Z,8.53
2023-02-19T06:41:56.410Z,4.97
2023-02-19T06:44:43.801Z,6.47
2023-02-19T06:47:32.393Z,4.17
2023-02-19T06:50:19.732Z,5.60
2023-02-19T06:53:08.917Z,6.63
2023-02-19T06:56:06.809Z,8.27
2023-02-19T06:58:55.171Z,5.03
2023-02-19T07:01:42.562Z,7.93
2023-02-19T07:04:30.049Z,10.27
2023-02-19T07:07:17.473Z,3.30
2023-02-19T07:10:04.956Z,9.30
2023-02-19T07:12:52.328Z,8.97
2023-02-19T07:15:39.681Z,5.87
2023-02-19T07:18:27.089Z,6.93
2023-02-19T07:21:15.251Z,7.27
2023-02-19T07:24:02.617Z,4.17
2023-02-19T07:26:50.012Z,6.30
2023-02-19T07:29:37.420Z,7.80
2023-02-19T07:32:24.768Z,5.90
2023-02-19T07:35:12.194Z,5.80
2023-02-19T07:37:59.660Z,8.93
2023-02-19T07:40:52.822Z,8.40
2023-02-19T07:43:40.354Z,10.83
2023-02-19T07:46:28.054Z,7.50
2023-02-19T07:49:15.591Z,5.40
2023-02-19T07:52:03.018Z,10.20
2023-02-19T07:54:50.375Z,11.73
2023-02-19T07:57:37.758Z,4.57
2023-02-19T08:00:25.830Z,5.07
2023-02-19T08:03:13.223Z,6.13
2023-02-19T08:06:00.643Z,4.53
2023-02-19T08:08:48.003Z,6.00
2023-02-19T08:11:54.207Z,7.83
2023-02-19T08:14:41.604Z,8.03
2023-02-19T08:17:30.169Z,9.00
2023-02-19T08:20:17.552Z,7.50
2023-02-19T08:23:05.079Z,6.30
2023-02-19T08:25:53.023Z,8.27
2023-02-19T08:28:40.488Z,5.40
2023-02-19T08:31:27.976Z,5.90
2023-02-19T08:34:15.400Z,8.67
2023-02-19T08:37:02.831Z,11.53
2023-02-19T08:39:50.190Z,9.17
2023-02-19T08:42:37.638Z,7.80
2023-02-19T08:45:24.965Z,6.70
2023-02-19T08:48:12.432Z,8.10
2023-02-19T08:51:05.278Z,9.30
2023-02-19T08:53:52.719Z,8.80
2023-02-19T08:56:40.061Z,9.33
2023-02-19T08:59:29.308Z,6.37
2023-02-19T09:02:16.754Z,6.37
2023-02-19T09:05:05.507Z,5.80
2023-02-19T09:07:52.917Z,9.10
2023-02-19T09:10:40.306Z,4.23
2023-02-19T09:13:28.027Z,5.37
2023-02-19T09:16:15.385Z,6.50
2023-02-19T09:19:02.842Z,7.13
2023-02-19T09:21:50.192Z,6.10
2023-02-19T09:24:37.584Z,6.27
2023-02-19T09:27:24.934Z,4.87
2023-02-19T09:30:12.377Z,4.73
2023-02-19T09:32:59.726Z,8.77
2023-02-19T09:35:47.071Z,3.13
2023-02-19T09:38:34.423Z,5.40
2023-02-19T09:41:21.756Z,3.97
2023-02-19T09:44:11.223Z,6.53
2023-02-19T09:46:59.413Z,6.13
2023-02-19T09:49:52.122Z,4.47
2023-02-19T09:52:42.107Z,3.78
2023-02-19T09:55:37.890Z,3.42
2023-02-19T09:58:29.853Z,6.00
2023-02-19T10:01:17.400Z,3.55
2023-02-19T10:04:04.997Z,3.50
2023-02-19T10:06:52.648Z,5.97
2023-02-19T10:09:40.123Z,6.20
2023-02-19T10:12:28.879Z,4.53
2023-02-19T10:15:18.384Z,4.22
2023-02-19T10:18:08.769Z,5.72
2023-02-19T10:20:58.077Z,6.93
2023-02-19T10:23:45.584Z,5.93
2023-02-19T10:26:36.384Z,4.65
2023-02-19T10:29:24.777Z,4.95
2023-02-19T10:32:21.545Z,4.35
2023-02-19T10:35:16.270Z,4.20
2023-02-19T10:38:05.761Z,3.90
2023-02-19T10:40:58.475Z,3.93
2023-02-19T10:43:50.640Z,3.90
2023-02-19T10:46:42.814Z,5.13
2023-02-19T10:49:38.179Z,3.40
2023-02-19T10:52:30.523Z,1.70
2023-02-19T10:55:24.063Z,2.97
2023-02-19T10:58:23.988Z,3.63
2023-02-19T11:01:22.309Z,3.78
2023-02-19T11:04:17.429Z,5.60
2023-02-19T11:07:18.217Z,5.70
2023-02-19T11:10:07.086Z,3.93
2023-02-19T11:12:56.341Z,8.90
2023-02-19T11:15:43.768Z,6.00
2023-02-19T11:18:38.420Z,5.10
2023-02-19T11:21:33.071Z,4.50
2023-02-19T11:24:33.700Z,4.47
2023-02-19T11:27:24.833Z,3.30
2023-02-19T11:30:35.249Z,6.90
2023-02-19T11:33:27.271Z,4.90
2023-02-19T11:36:17.865Z,2.83
2023-02-19T11:39:17.193Z,4.30
2023-02-19T11:42:24.848Z,4.27
2023-02-19T11:45:30.321Z,4.90
2023-02-19T11:48:36.391Z,2.93
2023-02-19T11:51:42.567Z,4.30
2023-02-19T11:54:41.898Z,3.33
2023-02-19T11:57:32.345Z,4.47
2023-02-19T12:00:27.604Z,3.53
2023-02-19T12:03:23.688Z,4.70
2023-02-19T12:06:19.891Z,3.93
2023-02-19T12:09:26.128Z,3.40
2023-02-19T12:12:26.575Z,3.47
2023-02-19T12:15:13.894Z,3.00
2023-02-19T12:18:10.887Z,3.70
2023-02-19T12:21:07.235Z,4.13
2023-02-19T12:24:13.458Z,4.50
2023-02-19T12:27:06.935Z,3.27
2023-02-19T12:30:17.120Z,8.63
2023-02-19T12:33:21.661Z,3.73
2023-02-19T12:36:18.239Z,2.83
2023-02-19T12:39:24.594Z,3.13
2023-02-19T12:42:30.362Z,3.23
2023-02-19T12:45:23.245Z,3.47
2023-02-19T12:48:18.518Z,5.50
2023-02-19T12:51:09.001Z,4.13
2023-02-19T12:54:01.709Z,3.43
2023-02-19T12:57:09.332Z,2.97
2023-02-19T13:00:04.747Z,3.80
2023-02-19T13:03:05.914Z,1.27
2023-02-19T13:06:13.724Z,3.97
2023-02-19T13:09:12.560Z,3.13
2023-02-19T13:12:03.392Z,3.50
2023-02-19T13:15:14.155Z,7.23
2023-02-19T13:18:03.989Z,2.20
2023-02-19T13:20:54.764Z,4.57
2023-02-19T13:23:58.340Z,3.27
2023-02-19T13:26:49.209Z,3.43
2023-02-19T13:29:55.429Z,3.57
2023-02-19T13:32:53.371Z,3.50
2023-02-19T13:35:43.478Z,6.03
2023-02-19T13:38:33.120Z,6.07
2023-02-19T13:41:31.852Z,3.83
2023-02-19T13:44:20.568Z,1.67
2023-02-19T13:47:27.876Z,4.40
2023-02-19T13:50:19.387Z,3.37
2023-02-19T13:53:29.799Z,2.00
2023-02-19T13:56:33.958Z,6.73
2023-02-19T13:59:25.752Z,4.47
2023-02-19T14:02:15.835Z,7.40
2023-02-19T14:05:05.324Z,3.17
2023-02-19T14:07:54.301Z,2.73
2023-02-19T14:10:52.902Z,4.60
2023-02-19T14:13:52.547Z,6.17
2023-02-19T14:16:39.890Z,4.17
2023-02-19T14:19:42.716Z,4.20
2023-02-19T14:22:45.940Z,3.87
2023-02-19T14:25:38.205Z,3.07
2023-02-19T14:28:41.840Z,4.93
2023-02-19T14:31:30.913Z,2.37
2023-02-19T14:34:23.484Z,2.30
2023-02-19T14:37:16.930Z,2.17
2023-02-19T14:40:04.908Z,3.53
2023-02-19T14:42:54.287Z,4.67
2023-02-19T14:45:44.980Z,5.07
2023-02-19T14:48:34.400Z,1.93
2023-02-19T14:51:28.981Z,2.40
2023-02-19T14:54:22.109Z,4.37
2023-02-19T14:57:16.523Z,4.15
2023-02-19T15:00:17.094Z,3.23
2023-02-19T15:03:05.162Z,9.57
2023-02-19T15:06:04.066Z,4.13
2023-02-19T15:08:53.314Z,3.63
2023-02-19T15:11:43.092Z,4.17
2023-02-19T15:14:32.175Z,3.17
2023-02-19T15:17:30.301Z,12.17
2023-02-19T15:20:20.177Z,1.60
2023-02-19T15:23:08.045Z,6.87
2023-02-19T15:25:55.417Z,4.63
2023-02-19T15:28:42.790Z,5.13
2023-02-19T15:31:30.473Z,1.30
2023-02-19T15:34:25.021Z,1.37
2023-02-19T15:37:13.858Z,3.50
2023-02-19T15:40:03.676Z,4.83
2023-02-19T15:42:51.045Z,4.80
2023-02-19T15:45:41.849Z,1.67
2023-02-19T15:48:38.379Z,6.77
2023-02-19T15:51:48.998Z,3.23
2023-02-19T15:54:53.400Z,6.60
2023-02-19T15:57:43.822Z,6.47
2023-02-19T16:00:34.807Z,5.13
2023-02-19T16:03:24.022Z,4.27
2023-02-19T16:06:14.902Z,7.03
2023-02-19T16:09:03.471Z,2.67
2023-02-19T16:11:53.048Z,6.87
2023-02-19T16:14:40.398Z,6.87
2023-02-19T16:17:28.557Z,7.13
2023-02-19T16:20:23.787Z,6.87
2023-02-19T16:23:13.475Z,7.37
2023-02-19T16:26:02.712Z,9.80
2023-02-19T16:28:53.850Z,6.27
2023-02-19T16:31:47.683Z,4.73
2023-02-19T16:34:48.283Z,6.40
2023-02-19T16:37:56.711Z,6.00
2023-02-19T16:40:56.247Z,4.67
2023-02-19T16:43:44.158Z,7.43
2023-02-19T16:46:31.512Z,3.00
2023-02-19T16:49:19.232Z,6.90
2023-02-19T16:52:06.588Z,4.93
2023-02-19T16:54:53.944Z,2.53
2023-02-19T16:57:41.385Z,4.17
2023-02-19T17:00:30.484Z,3.50
2023-02-19T17:03:22.177Z,8.97
2023-02-19T17:06:09.685Z,5.30
2023-02-19T17:08:57.106Z,5.17
2023-02-19T17:11:44.489Z,3.17
2023-02-19T17:14:31.831Z,9.80
2023-02-19T17:17:19.196Z,6.73
2023-02-19T17:20:18.643Z,4.43
2023-02-19T17:23:06.040Z,5.83
2023-02-19T17:25:53.455Z,5.60
2023-02-19T17:28:41.536Z,4.63
2023-02-19T17:31:29.270Z,5.93
2023-02-19T17:34:16.688Z,4.77
2023-02-19T17:37:04.155Z,5.47
2023-02-19T17:39:51.505Z,7.87
2023-02-19T17:42:38.861Z,4.17
2023-02-19T17:45:26.252Z,8.27
2023-02-19T17:48:14.618Z,5.70
2023-02-19T17:51:02.025Z,8.53
2023-02-19T17:53:49.565Z,4.10
2023-02-19T17:56:37.114Z,5.80
2023-02-19T17:59:24.505Z,7.37
2023-02-19T18:02:11.851Z,7.10
2023-02-19T18:04:59.287Z,6.00
2023-02-19T18:07:47.415Z,6.80
2023-02-19T18:10:35.920Z,3.03
2023-02-19T18:13:24.670Z,6.60
2023-02-19T18:16:12.154Z,6.00
2023-02-19T18:19:02.056Z,6.57
2023-02-19T18:21:50.834Z,3.53
2023-02-19T18:24:38.408Z,3.97
2023-02-19T18:27:25.950Z,3.03
2023-02-19T18:30:16.745Z,6.93
2023-02-19T18:33:04.149Z,8.00
2023-02-19T18:35:51.571Z,5.70
2023-02-19T18:38:39.414Z,3.43
2023-02-19T18:41:26.846Z,9.27
2023-02-19T18:44:14.203Z,3.80
2023-02-19T18:47:01.546Z,4.53
2023-02-19T18:49:49.347Z,6.00
2023-02-19T18:52:36.690Z,7.47
2023-02-19T18:55:24.075Z,4.63
2023-02-19T18:58:11.432Z,4.70
2023-02-19T19:00:59.426Z,2.23
2023-02-19T19:03:46.881Z,4.67
2023-02-19T19:06:35.759Z,4.87
2023-02-19T19:09:23.220Z,7.57
2023-02-19T19:12:10.631Z,4.53
2023-02-19T19:14:57.994Z,4.97
2023-02-19T19:17:45.316Z,10.93
2023-02-19T19:20:32.674Z,9.03
2023-02-19T19:23:20.004Z,5.37
2023-02-19T19:26:07.592Z,5.17
2023-02-19T19:28:55.153Z,8.77
2023-02-19T19:31:42.896Z,8.20
2023-02-19T19:34:30.366Z,11.27
2023-02-19T19:37:17.711Z,5.17
2023-02-19T19:40:05.312Z,3.73
2023-02-19T19:42:52.884Z,6.10
2023-02-19T19:45:40.314Z,4.07
2023-02-19T19:48:27.836Z,5.33
2023-02-19T19:51:15.238Z,2.37
2023-02-19T19:54:04.102Z,3.47
2023-02-19T19:56:51.464Z,6.03
2023-02-19T19:59:39.585Z,4.13
2023-02-19T20:02:27.079Z,8.53
2023-02-19T20:05:15.360Z,5.17
2023-02-19T20:08:02.696Z,3.90
2023-02-19T20:10:50.029Z,5.50
2023-02-19T20:13:37.422Z,2.47
2023-02-19T20:16:28.362Z,5.37
2023-02-19T20:19:16.595Z,6.03
2023-02-19T20:22:03.953Z,3.97
2023-02-19T20:24:51.971Z,2.97
2023-02-19T20:27:39.384Z,4.30
2023-02-19T20:30:26.816Z,5.43
2023-02-19T20:33:14.193Z,5.80
2023-02-19T20:36:01.833Z,6.33
2023-02-19T20:38:52.435Z,9.33
2023-02-19T20:41:39.876Z,3.93
2023-02-19T20:44:28.331Z,9.00
2023-02-19T20:47:15.664Z,6.60
2023-02-19T20:50:03.794Z,4.37
2023-02-19T20:52:51.198Z,7.33
2023-02-19T20:55:38.665Z,8.47
2023-02-19T20:58:26.545Z,5.43
2023-02-19T21:01:13.877Z,5.77
2023-02-19T21:04:01.689Z,8.37
2023-02-19T21:06:52.032Z,3.97
2023-02-19T21:09:39.544Z,8.27
2023-02-19T21:12:27.035Z,6.13
2023-02-19T21:15:14.691Z,4.87
2023-02-19T21:18:03.159Z,7.30
2023-02-19T21:20:50.502Z,4.73
2023-02-19T21:23:37.846Z,2.77
2023-02-19T21:26:25.851Z,7.67
2023-02-19T21:29:20.890Z,7.40
2023-02-19T21:32:08.341Z,7.20
2023-02-19T21:34:55.832Z,5.50
2023-02-19T21:37:44.263Z,8.63
2023-02-19T21:40:32.793Z,7.83
2023-02-19T21:43:20.188Z,7.80
2023-02-19T21:46:07.551Z,6.57
2023-02-19T21:48:55.938Z,2.47
2023-02-19T21:51:44.245Z,6.93
2023-02-19T21:54:31.606Z,4.60
2023-02-19T21:57:18.962Z,9.40
2023-02-19T22:00:06.784Z,6.97
2023-02-19T22:02:54.175Z,3.80
2023-02-19T22:05:41.574Z,5.30
2023-02-19T22:08:29.334Z,7.27
2023-02-19T22:11:16.683Z,6.30
2023-02-19T22:14:04.409Z,4.87
2023-02-19T22:16:51.827Z,10.33
2023-02-19T22:19:39.211Z,3.97
2023-02-19T22:22:26.713Z,2.30
2023-02-19T22:25:14.166Z,8.13
2023-02-19T22:28:01.584Z,7.33
2023-02-19T22:30:48.916Z,5.63
2023-02-19T22:33:36.517Z,7.03
2023-02-19T22:36:25.314Z,5.70
2023-02-19T22:39:25.836Z,3.17
2023-02-19T22:42:13.160Z,3.90
2023-02-19T22:45:00.520Z,2.53
2023-02-19T22:47:47.912Z,3.77
2023-02-19T22:50:35.313Z,6.17
2023-02-19T22:53:22.650Z,10.23
2023-02-19T22:56:10.813Z,3.43
2023-02-19T22:58:59.022Z,4.13
2023-02-19T23:01:46.566Z,4.87
2023-02-19T23:04:34.109Z,4.20
2023-02-19T23:07:21.546Z,4.17
2023-02-19T23:10:09.390Z,4.87
2023-02-19T23:12:56.845Z,4.03
2023-02-19T23:15:44.184Z,3.40
2023-02-19T23:18:31.578Z,8.50
2023-02-19T23:21:19.425Z,6.97
2023-02-19T23:24:07.590Z,4.57
2023-02-19T23:26:55.198Z,3.50
2023-02-19T23:29:42.562Z,7.93
2023-02-19T23:32:29.902Z,3.87
2023-02-19T23:35:17.363Z,5.93
2023-02-19T23:38:04.759Z,5.20
2023-02-19T23:40:52.095Z,5.73
2023-02-19T23:43:39.470Z,4.23
2023-02-19T23:46:26.857Z,4.57
2023-02-19T23:49:14.589Z,5.60
2023-02-19T23:52:01.957Z,5.17
2023-02-19T23:54:49.308Z,9.50
2023-02-19T23:57:36.665Z,4.83
